Terminal Aerodrome Forecast
Issued by NWS Des Moines, IA

Home | Current Version | Previous Version | Text Only | Print | Product List | Glossary On
Versions: 1 2 3 4 5 6 7 8 9 10 11 12 13 14 15 16 17 18 19 20 21 22 23 24 25 26 27 28 29 30 31
000
FTUS43 KDMX 212344
TAFDSM
TAF
KDSM 212344Z 2200/2224 24006KT P6SM SCT017 BKN120
     FM220400 27004KT 2SM BR SCT007
     FM220600 31004KT 1/2SM FG BKN003
     FM221400 34007KT 2SM BR BKN011
     FM221900 34012KT P6SM BKN020=

USA.gov is the U.S. government's official web portal to all federal, state and local government web resources and services.